Time;durP1;ratioP1;P1;durP2;ratioP2;P2;SDS_P1;SDS_P2;PMS_P1;PMS_P2;Temp;Humidity;BMP_temperature;BMP_pressure;BME280_temperature;BME280_humidity;BME280_pressure;Samples;Min_cycle;Max_cycle;Signal;HPM_P1;HPM_P2
2021/08/10 00:01:40;;;;;;;1.23;0.85;;;16.20;94.90;;;;;;5076193;28;20078;-81
2021/08/10 00:04:05;;;;;;;1.30;1.20;;;16.10;95.00;;;;;;5076113;28;20071;-81
2021/08/10 00:06:31;;;;;;;1.65;1.13;;;16.10;95.00;;;;;;5075877;28;20045;-82
2021/08/10 00:08:56;;;;;;;1.17;1.08;;;16.10;95.00;;;;;;5075957;28;20093;-81
2021/08/10 00:11:22;;;;;;;1.20;1.10;;;16.10;95.00;;;;;;5075318;28;20032;-81
2021/08/10 00:13:47;;;;;;;1.67;1.00;;;16.10;95.00;;;;;;5075758;28;20074;-80
2021/08/10 00:16:13;;;;;;;1.48;1.10;;;16.10;95.00;;;;;;5057979;28;20485;-81
2021/08/10 00:18:38;;;;;;;1.83;1.15;;;16.00;95.00;;;;;;5075679;28;20485;-80
2021/08/10 00:21:04;;;;;;;1.80;1.08;;;16.00;95.00;;;;;;5075572;28;20047;-80
2021/08/10 00:23:30;;;;;;;1.27;1.17;;;16.00;95.00;;;;;;5075837;28;20051;-80
2021/08/10 00:25:55;;;;;;;1.25;0.98;;;16.00;95.00;;;;;;5057142;28;20116;-80
2021/08/10 00:28:21;;;;;;;1.50;1.23;;;16.00;95.10;;;;;;5075643;28;20031;-81
2021/08/10 00:30:46;;;;;;;1.30;1.10;;;16.00;95.00;;;;;;5057646;28;20029;-81
2021/08/10 00:33:13;;;;;;;0.93;0.90;;;16.00;95.00;;;;;;5075524;28;20031;-80
2021/08/10 00:35:38;;;;;;;0.75;0.75;;;16.00;95.00;;;;;;5075668;28;20354;-81
2021/08/10 00:38:04;;;;;;;1.52;1.23;;;16.00;95.00;;;;;;5074393;28;20031;-80
2021/08/10 00:40:32;;;;;;;1.48;1.02;;;15.90;95.00;;;;;;5074637;28;20031;-80
2021/08/10 00:42:57;;;;;;;0.95;0.80;;;16.00;95.00;;;;;;5075351;28;20385;-81
2021/08/10 00:45:23;;;;;;;1.40;1.10;;;16.00;95.00;;;;;;5057324;28;20016;-80
2021/08/10 00:47:49;;;;;;;1.25;1.00;;;15.90;94.90;;;;;;5057548;28;20070;-79
2021/08/10 00:50:14;;;;;;;1.13;0.90;;;15.90;94.90;;;;;;5075220;28;20052;-79
2021/08/10 00:52:41;;;;;;;1.80;1.23;;;15.90;94.90;;;;;;5075086;28;20035;-80
2021/08/10 00:55:08;;;;;;;2.38;1.55;;;15.90;95.20;;;;;;5074467;28;20024;-81
2021/08/10 00:57:34;;;;;;;1.67;1.25;;;15.90;95.00;;;;;;5074931;28;20025;-81
2021/08/10 01:00:00;;;;;;;1.30;1.10;;;15.90;94.90;;;;;;5056912;28;20094;-80
2021/08/10 01:02:26;;;;;;;1.63;1.20;;;15.90;94.90;;;;;;5074967;28;20096;-80
2021/08/10 01:04:52;;;;;;;2.45;1.35;;;15.80;94.90;;;;;;5074804;28;20108;-80
2021/08/10 01:07:27;;;;;;;1.63;1.10;;;15.80;95.00;;;;;;5074891;28;20024;-81
2021/08/10 01:10:01;;;;;;;2.35;1.25;;;15.90;95.00;;;;;;5074411;28;20016;-81
2021/08/10 01:12:46;;;;;;;1.38;1.10;;;15.80;95.00;;;;;;5074692;28;20044;-79
2021/08/10 01:15:18;;;;;;;1.45;1.15;;;15.80;94.90;;;;;;5074836;28;20027;-79
2021/08/10 01:18:21;;;;;;;0.90;0.90;;;15.80;95.00;;;;;;5074429;28;20020;-80
2021/08/10 01:21:25;;;;;;;1.10;0.88;;;15.80;95.00;;;;;;5066064;28;20131;-79
2021/08/10 01:24:15;;;;;;;1.48;1.00;;;15.70;95.00;;;;;;5073939;28;20574;-80
2021/08/10 01:27:00;;;;;;;1.40;1.00;;;15.80;95.00;;;;;;5074404;28;20028;-80
2021/08/10 01:29:49;;;;;;;1.77;1.20;;;15.70;95.00;;;;;;5074515;28;20028;-80
2021/08/10 01:32:15;;;;;;;0.87;0.87;;;15.70;95.00;;;;;;5056485;28;20121;-80
2021/08/10 01:34:43;;;;;;;1.33;1.05;;;15.70;95.00;;;;;;5074311;28;20430;-80
2021/08/10 01:37:13;;;;;;;1.60;1.13;;;15.70;95.00;;;;;;5074163;28;20031;-81
2021/08/10 01:39:41;;;;;;;1.60;1.20;;;15.70;95.00;;;;;;5055763;28;20398;-82
2021/08/10 01:42:09;;;;;;;1.07;1.00;;;15.70;95.00;;;;;;5074361;28;20054;-80
2021/08/10 01:44:35;;;;;;;1.80;1.60;;;15.70;95.00;;;;;;5074055;28;20082;-80
2021/08/10 01:47:03;;;;;;;1.20;1.10;;;15.70;95.00;;;;;;5074106;28;20028;-80
2021/08/10 01:49:30;;;;;;;2.20;1.38;;;15.70;95.00;;;;;;5073918;28;20020;-80
2021/08/10 01:51:58;;;;;;;2.22;1.38;;;15.70;95.00;;;;;;5055453;28;20024;-81
2021/08/10 01:54:25;;;;;;;1.88;1.27;;;15.70;95.00;;;;;;5074050;28;20027;-80
2021/08/10 01:56:50;;;;;;;1.95;1.50;;;15.70;95.00;;;;;;5055805;28;20025;-81
2021/08/10 01:59:18;;;;;;;2.38;1.35;;;15.70;95.00;;;;;;5073855;28;20033;-80
2021/08/10 02:01:44;;;;;;;3.40;1.70;;;15.70;95.10;;;;;;5073763;28;20043;-80
2021/08/10 02:04:11;;;;;;;2.17;1.73;;;15.80;95.10;;;;;;5073804;28;20021;-80
2021/08/10 02:06:38;;;;;;;1.88;1.20;;;15.80;95.10;;;;;;5073352;28;20029;-79
2021/08/10 02:09:05;;;;;;;2.28;1.40;;;15.80;95.10;;;;;;5073656;28;20031;-79
2021/08/10 02:11:31;;;;;;;1.30;1.20;;;15.80;95.10;;;;;;5073467;28;20027;-78
2021/08/10 02:13:59;;;;;;;1.55;1.30;;;15.80;95.00;;;;;;5073546;28;20024;-79
2021/08/10 02:16:27;;;;;;;3.08;1.70;;;15.90;95.00;;;;;;5073534;28;20104;-79
2021/08/10 02:18:53;;;;;;;2.67;1.75;;;15.90;95.00;;;;;;5073535;28;20452;-79
2021/08/10 02:21:34;;;;;;;2.78;1.90;;;15.80;95.00;;;;;;5072728;28;20429;-79
2021/08/10 02:24:04;;;;;;;3.10;1.80;;;15.90;95.00;;;;;;5055582;28;20081;-79
2021/08/10 02:26:30;;;;;;;;;;;15.90;95.00;;;;;;5073704;28;20021;-79
2021/08/10 02:28:57;;;;;;;2.80;1.75;;;15.80;95.10;;;;;;5073243;28;19985;-80
2021/08/10 02:31:24;;;;;;;2.17;1.40;;;15.80;95.10;;;;;;5073430;28;20016;-80
2021/08/10 02:33:51;;;;;;;1.67;1.52;;;15.80;95.00;;;;;;5073365;28;20028;-80
2021/08/10 02:36:18;;;;;;;3.17;1.98;;;15.80;95.00;;;;;;5054837;28;20025;-80
2021/08/10 02:38:45;;;;;;;2.63;1.30;;;15.90;95.00;;;;;;5073283;28;20028;-80
2021/08/10 02:41:12;;;;;;;3.08;1.73;;;15.80;94.90;;;;;;5073210;28;20020;-81
2021/08/10 02:43:39;;;;;;;2.80;1.80;;;15.80;95.00;;;;;;5073287;28;20377;-81
2021/08/10 02:46:04;;;;;;;1.85;1.40;;;15.80;95.00;;;;;;5073242;28;20066;-81
2021/08/10 02:48:31;;;;;;;2.17;1.40;;;15.80;95.00;;;;;;5073328;28;20030;-81
2021/08/10 02:50:57;;;;;;;1.20;1.00;;;15.80;95.00;;;;;;5072793;28;20021;-81
2021/08/10 02:53:23;;;;;;;2.78;1.60;;;15.80;95.00;;;;;;5073206;28;20025;-81
2021/08/10 02:55:56;;;;;;;2.95;1.88;;;15.80;95.00;;;;;;5073363;28;20143;-80
2021/08/10 02:58:27;;;;;;;2.13;1.45;;;15.80;94.90;;;;;;5072987;28;20040;-81
2021/08/10 03:01:04;;;;;;;2.03;1.73;;;15.80;95.00;;;;;;5074229;28;20020;-81
2021/08/10 03:03:32;;;;;;;3.00;2.33;;;15.80;95.00;;;;;;5059365;28;20036;-81
2021/08/10 03:06:00;;;;;;;2.83;2.08;;;15.70;95.00;;;;;;5076763;28;20029;-80
2021/08/10 03:08:32;;;;;;;2.05;1.30;;;15.70;95.00;;;;;;5077186;28;20020;-80
2021/08/10 03:10:58;;;;;;;2.38;1.50;;;15.70;95.00;;;;;;5077143;28;20162;-80
2021/08/10 03:13:25;;;;;;;2.38;1.58;;;15.70;95.10;;;;;;5076967;28;20126;-81
2021/08/10 03:15:53;;;;;;;3.33;1.20;;;15.70;95.10;;;;;;5077032;28;20025;-80
2021/08/10 03:18:22;;;;;;;2.47;1.88;;;15.60;95.10;;;;;;5076912;28;20021;-81
2021/08/10 03:20:48;;;;;;;4.63;1.83;;;15.70;95.10;;;;;;5076307;28;20028;-81
2021/08/10 03:23:17;;;;;;;3.33;2.05;;;15.70;95.10;;;;;;5058765;28;20041;-80
2021/08/10 03:25:44;;;;;;;2.88;1.55;;;15.70;95.00;;;;;;5076901;28;20031;-81
2021/08/10 03:28:12;;;;;;;1.70;1.60;;;15.70;95.10;;;;;;5076767;28;20060;-81
2021/08/10 03:30:40;;;;;;;1.98;1.50;;;15.70;95.00;;;;;;5076655;28;20103;-81
2021/08/10 03:33:06;;;;;;;1.92;1.40;;;15.70;95.00;;;;;;5076418;28;20488;-80
2021/08/10 03:35:32;;;;;;;2.03;1.40;;;15.70;95.00;;;;;;5058069;28;20095;-81
2021/08/10 03:37:58;;;;;;;1.80;1.55;;;15.60;94.90;;;;;;5058368;28;20025;-80
2021/08/10 03:40:24;;;;;;;2.08;1.42;;;15.60;94.90;;;;;;5076495;28;20037;-80
2021/08/10 03:42:50;;;;;;;2.03;1.45;;;15.60;95.00;;;;;;5076376;28;20028;-80
2021/08/10 03:45:16;;;;;;;1.75;1.40;;;15.60;95.00;;;;;;5076449;28;20055;-81
2021/08/10 03:47:42;;;;;;;2.38;1.60;;;15.60;94.90;;;;;;5076242;28;20112;-82
2021/08/10 03:50:09;;;;;;;2.30;1.48;;;15.60;95.00;;;;;;5075859;28;20036;-81
2021/08/10 03:52:35;;;;;;;2.20;1.50;;;15.60;95.00;;;;;;5076437;28;20021;-80
2021/08/10 03:55:03;;;;;;;2.00;1.58;;;15.60;95.30;;;;;;5076276;28;20024;-81
2021/08/10 03:57:31;;;;;;;1.52;1.27;;;15.60;95.00;;;;;;5075870;28;20413;-81
2021/08/10 03:59:58;;;;;;;1.73;1.33;;;15.60;95.00;;;;;;5076143;28;20028;-81
2021/08/10 04:02:24;;;;;;;2.78;1.70;;;15.60;94.90;;;;;;5057650;28;20031;-81
2021/08/10 04:04:53;;;;;;;1.98;1.38;;;15.60;94.90;;;;;;5075974;28;20487;-81
2021/08/10 04:07:20;;;;;;;2.45;1.30;;;15.60;94.90;;;;;;5076069;28;20108;-81
2021/08/10 04:09:46;;;;;;;2.78;1.83;;;15.50;95.20;;;;;;5075975;28;20031;-81
2021/08/10 04:12:12;;;;;;;2.47;1.70;;;15.60;94.90;;;;;;5074679;28;20012;-82
2021/08/10 04:14:41;;;;;;;1.88;1.45;;;15.50;95.00;;;;;;5075926;28;20099;-81
2021/08/10 04:17:07;;;;;;;2.13;1.30;;;15.50;94.90;;;;;;5075264;28;20489;-81
2021/08/10 04:19:36;;;;;;;3.20;1.70;;;15.50;95.00;;;;;;5075781;28;20032;-82
2021/08/10 04:22:03;;;;;;;2.67;1.83;;;15.50;95.20;;;;;;5075482;28;20389;-84
2021/08/10 04:24:28;;;;;;;2.17;1.38;;;15.50;95.00;;;;;;5075770;28;20024;-82
2021/08/10 04:26:54;;;;;;;2.75;1.90;;;15.50;95.00;;;;;;5075642;28;20020;-82
2021/08/10 04:29:19;;;;;;;2.00;1.60;;;15.50;95.00;;;;;;5075605;28;20427;-82
2021/08/10 04:31:45;;;;;;;1.88;1.42;;;15.50;95.00;;;;;;5075154;28;20042;-81
2021/08/10 04:34:11;;;;;;;2.15;1.60;;;15.40;95.00;;;;;;5075534;28;20035;-82
2021/08/10 04:36:36;;;;;;;2.47;1.50;;;15.40;95.00;;;;;;5075639;28;20052;-82
2021/08/10 04:39:02;;;;;;;2.70;2.03;;;15.40;95.00;;;;;;5075414;28;20032;-83
2021/08/10 04:41:28;;;;;;;1.40;1.30;;;15.40;95.00;;;;;;5075617;28;20025;-82
2021/08/10 04:43:54;;;;;;;1.70;1.48;;;15.40;95.00;;;;;;5075264;28;20146;-83
2021/08/10 04:46:22;;;;;;;2.17;1.70;;;15.40;95.00;;;;;;5075020;28;20078;-82
2021/08/10 04:48:47;;;;;;;2.30;1.60;;;15.40;95.00;;;;;;5057240;28;20109;-83
2021/08/10 04:51:13;;;;;;;2.05;1.63;;;15.40;95.00;;;;;;5075372;28;20040;-84
2021/08/10 04:53:39;;;;;;;5.07;1.70;;;15.40;95.00;;;;;;5075276;28;20477;-84
2021/08/10 04:56:09;;;;;;;2.17;1.33;;;15.40;95.00;;;;;;5075145;28;20027;-82
2021/08/10 04:58:35;;;;;;;;;;;15.40;95.00;;;;;;5075498;28;20056;-84
2021/08/10 05:01:00;;;;;;;2.17;1.40;;;15.30;95.00;;;;;;5055881;28;19905;-84
2021/08/10 05:03:28;;;;;;;3.05;1.50;;;15.30;95.00;;;;;;5057405;28;20366;-83
2021/08/10 05:05:54;;;;;;;1.77;1.38;;;15.30;95.00;;;;;;5075027;28;20050;-83
2021/08/10 05:08:19;;;;;;;1.52;1.17;;;15.40;95.30;;;;;;5057265;28;20432;-82
2021/08/10 05:10:45;;;;;;;1.30;1.20;;;15.40;95.00;;;;;;5075114;28;20020;-83
2021/08/10 05:13:10;;;;;;;1.27;1.10;;;15.40;94.90;;;;;;5074779;28;20111;-83
2021/08/10 05:15:39;;;;;;;1.92;1.40;;;15.40;94.90;;;;;;5074305;28;20032;-83
2021/08/10 05:18:04;;;;;;;1.45;1.20;;;15.40;94.90;;;;;;5074551;28;20032;-83
2021/08/10 05:20:30;;;;;;;2.58;1.60;;;15.40;94.90;;;;;;5074904;28;20024;-83
2021/08/10 05:22:56;;;;;;;1.55;1.42;;;15.40;94.90;;;;;;5053274;28;20049;-83
2021/08/10 05:25:22;;;;;;;2.08;1.38;;;15.40;94.90;;;;;;5054180;28;20036;-84
2021/08/10 05:27:48;;;;;;;2.70;1.40;;;15.40;94.90;;;;;;5054833;28;20025;-83
2021/08/10 05:30:14;;;;;;;1.90;1.17;;;15.40;94.90;;;;;;5054103;28;20032;-84
2021/08/10 05:32:40;;;;;;;1.48;1.25;;;15.50;94.90;;;;;;5053434;28;20021;-83
2021/08/10 05:35:08;;;;;;;1.90;1.42;;;15.40;94.90;;;;;;5054508;28;20390;-85
2021/08/10 05:37:34;;;;;;;3.42;1.95;;;15.40;94.90;;;;;;5054605;28;20017;-85
2021/08/10 05:40:01;;;;;;;1.48;1.20;;;15.40;94.90;;;;;;5054485;28;20116;-83
2021/08/10 05:42:26;;;;;;;1.27;1.17;;;15.50;95.00;;;;;;5054701;28;20075;-85
2021/08/10 05:44:52;;;;;;;1.60;1.23;;;15.50;95.00;;;;;;5053902;28;20033;-84
2021/08/10 05:47:17;;;;;;;1.83;1.35;;;15.50;94.90;;;;;;5054318;28;20108;-83
2021/08/10 05:49:43;;;;;;;2.25;1.63;;;15.50;94.90;;;;;;5054293;28;20028;-83
2021/08/10 05:52:08;;;;;;;1.95;1.30;;;15.50;94.90;;;;;;5054174;28;20025;-84
2021/08/10 05:54:35;;;;;;;2.60;1.60;;;15.50;94.90;;;;;;5054689;28;20470;-84
2021/08/10 05:57:00;;;;;;;2.03;1.60;;;15.60;95.00;;;;;;5054406;28;20028;-85
2021/08/10 05:59:26;;;;;;;2.70;1.60;;;15.60;95.00;;;;;;5053620;28;20033;-86
2021/08/10 06:01:51;;;;;;;1.75;1.35;;;15.60;95.00;;;;;;5053814;28;20466;-86
2021/08/10 06:04:17;;;;;;;2.55;1.27;;;15.70;95.00;;;;;;5054648;28;20106;-86
2021/08/10 06:06:44;;;;;;;2.20;1.50;;;15.70;94.90;;;;;;5054937;28;20055;-87
2021/08/10 06:09:09;;;;;;;2.20;1.60;;;15.80;94.90;;;;;;5054661;28;20025;-87
2021/08/10 06:11:38;;;;;;;3.58;2.00;;;15.80;94.90;;;;;;5054490;28;20020;-84
2021/08/10 06:14:04;;;;;;;2.35;1.50;;;15.80;94.90;;;;;;5054084;28;20064;-86
2021/08/10 06:16:30;;;;;;;2.15;1.42;;;15.80;94.90;;;;;;5054353;28;20147;-85
2021/08/10 06:18:55;;;;;;;2.00;1.45;;;15.90;94.90;;;;;;5054314;28;20124;-87
2021/08/10 06:21:21;;;;;;;2.05;1.45;;;15.90;94.90;;;;;;5057955;28;20090;-85
2021/08/10 06:23:47;;;;;;;2.20;1.40;;;15.90;94.90;;;;;;5074616;28;20032;-85
2021/08/10 06:26:12;;;;;;;2.72;1.70;;;16.00;94.90;;;;;;5056853;28;20031;-87
2021/08/10 06:28:38;;;;;;;1.58;1.10;;;16.10;94.90;;;;;;5074227;28;20031;-86
2021/08/10 06:31:04;;;;;;;2.95;1.52;;;16.20;94.90;;;;;;5074541;28;20023;-87
2021/08/10 06:33:30;;;;;;;2.85;1.80;;;16.30;94.90;;;;;;5074184;28;20031;-86
2021/08/10 06:35:56;;;;;;;2.58;1.85;;;16.40;94.90;;;;;;5073066;28;20106;-84
2021/08/10 06:38:21;;;;;;;5.20;1.85;;;16.60;94.80;;;;;;5073652;28;20386;-84
2021/08/10 06:40:47;;;;;;;3.40;1.73;;;16.70;94.70;;;;;;5073650;28;20469;-85
2021/08/10 06:43:13;;;;;;;3.00;1.88;;;16.70;94.70;;;;;;5073190;28;20023;-84
2021/08/10 06:45:38;;;;;;;3.58;2.33;;;16.70;94.70;;;;;;5055814;28;20104;-80
2021/08/10 06:48:04;;;;;;;2.83;1.75;;;16.70;94.60;;;;;;5073449;28;20082;-84
2021/08/10 06:50:30;;;;;;;3.00;1.50;;;16.70;94.60;;;;;;5073485;28;20035;-83
2021/08/10 06:52:56;;;;;;;3.28;1.60;;;16.70;94.70;;;;;;5073438;28;20025;-83
2021/08/10 06:55:21;;;;;;;4.32;2.30;;;16.80;94.70;;;;;;5073126;28;20025;-83
2021/08/10 06:57:47;;;;;;;2.63;1.65;;;16.80;94.70;;;;;;5072815;28;20073;-82
2021/08/10 07:00:13;;;;;;;3.38;1.85;;;16.80;94.70;;;;;;5073027;28;20029;-83
2021/08/10 07:02:39;;;;;;;3.58;1.70;;;16.90;94.70;;;;;;5073169;28;20135;-83
2021/08/10 07:05:04;;;;;;;2.17;1.45;;;17.00;94.90;;;;;;5073128;28;20476;-83
2021/08/10 07:07:30;;;;;;;2.35;1.85;;;17.00;94.60;;;;;;5073575;28;20025;-84
2021/08/10 07:09:55;;;;;;;3.60;2.13;;;17.00;94.60;;;;;;5073145;28;20020;-86
2021/08/10 07:12:21;;;;;;;3.08;1.80;;;17.10;94.60;;;;;;5072717;28;20469;-82
2021/08/10 07:14:47;;;;;;;2.83;1.77;;;17.10;94.60;;;;;;5055162;28;20477;-81
2021/08/10 07:17:12;;;;;;;3.83;2.40;;;17.10;94.60;;;;;;5073315;28;20578;-83
2021/08/10 07:19:38;;;;;;;3.15;1.90;;;17.20;94.60;;;;;;5072938;28;20032;-82
2021/08/10 07:22:03;;;;;;;3.38;2.40;;;17.20;94.50;;;;;;5054744;28;20051;-83
2021/08/10 07:24:29;;;;;;;2.97;2.03;;;17.30;94.60;;;;;;5073044;28;20024;-83
2021/08/10 07:26:55;;;;;;;2.17;1.52;;;17.50;94.50;;;;;;5072641;28;20351;-83
2021/08/10 07:29:20;;;;;;;3.08;1.83;;;17.60;94.50;;;;;;5072768;28;20048;-82
2021/08/10 07:31:46;;;;;;;3.10;2.30;;;17.70;94.50;;;;;;5072892;28;20103;-81
2021/08/10 07:34:12;;;;;;;3.58;1.98;;;17.80;94.40;;;;;;5072832;28;20021;-82
2021/08/10 07:36:37;;;;;;;3.42;2.00;;;17.80;94.30;;;;;;5072757;28;20061;-82
2021/08/10 07:39:04;;;;;;;4.05;2.20;;;17.80;94.20;;;;;;5072541;28;20068;-83
2021/08/10 07:41:30;;;;;;;3.00;2.17;;;17.70;94.20;;;;;;5072153;28;20012;-82
2021/08/10 07:43:55;;;;;;;5.90;2.63;;;17.60;94.30;;;;;;5072740;28;20035;-81
2021/08/10 07:46:21;;;;;;;4.07;2.10;;;17.60;94.40;;;;;;5072641;28;20021;-82
2021/08/10 07:48:47;;;;;;;3.47;2.40;;;17.60;94.50;;;;;;5076313;28;20024;-82
2021/08/10 07:51:12;;;;;;;4.18;2.50;;;17.70;94.50;;;;;;5076427;28;20495;-83
2021/08/10 07:53:38;;;;;;;3.50;2.28;;;17.70;94.40;;;;;;5076100;28;20033;-82
2021/08/10 07:56:04;;;;;;;2.83;2.10;;;17.80;94.50;;;;;;5057846;28;20029;-80
2021/08/10 07:58:29;;;;;;;3.53;2.50;;;17.90;94.40;;;;;;5076122;28;20043;-82
2021/08/10 08:00:55;;;;;;;2.17;1.88;;;17.90;94.40;;;;;;5076260;28;20020;-80
2021/08/10 08:03:20;;;;;;;3.17;1.98;;;17.90;94.30;;;;;;5075923;28;20052;-81
2021/08/10 08:05:49;;;;;;;2.90;2.25;;;17.90;94.30;;;;;;5075958;28;20070;-82
2021/08/10 08:08:14;;;;;;;3.67;2.17;;;17.90;94.30;;;;;;5075782;28;20047;-80
2021/08/10 08:10:40;;;;;;;3.08;2.10;;;18.00;94.30;;;;;;5075318;28;20024;-80
2021/08/10 08:13:06;;;;;;;3.40;1.92;;;18.00;94.40;;;;;;5057743;28;20115;-81
2021/08/10 08:15:33;;;;;;;3.80;2.63;;;18.10;94.40;;;;;;5075954;28;20060;-80
2021/08/10 08:17:58;;;;;;;3.60;2.10;;;18.20;94.40;;;;;;5075730;28;20023;-80
2021/08/10 08:20:24;;;;;;;2.63;1.60;;;18.20;94.30;;;;;;5075871;28;20024;-80
2021/08/10 08:22:50;;;;;;;3.25;2.03;;;18.30;94.30;;;;;;5057414;28;20044;-80
2021/08/10 08:25:15;;;;;;;3.33;2.17;;;18.40;94.30;;;;;;5075217;28;20473;-81
2021/08/10 08:27:41;;;;;;;3.40;2.38;;;18.40;94.20;;;;;;5075762;28;20077;-80
2021/08/10 08:30:07;;;;;;;3.60;2.25;;;18.40;94.30;;;;;;5075568;28;20016;-81
2021/08/10 08:32:33;;;;;;;2.80;1.77;;;18.50;94.30;;;;;;5075342;28;20028;-77
2021/08/10 08:34:58;;;;;;;1.77;1.67;;;18.60;94.30;;;;;;5075456;28;20154;-79
2021/08/10 08:37:24;;;;;;;2.70;1.73;;;18.70;94.30;;;;;;5057317;28;20017;-78
2021/08/10 08:39:49;;;;;;;1.63;1.45;;;18.80;94.30;;;;;;5074876;28;20040;-79
2021/08/10 08:42:16;;;;;;;2.40;2.20;;;19.00;94.30;;;;;;5057547;28;20028;-79
2021/08/10 08:44:42;;;;;;;2.10;1.77;;;19.10;94.20;;;;;;5075262;28;20024;-79
2021/08/10 08:47:09;;;;;;;2.28;1.60;;;19.00;94.00;;;;;;5075304;28;20066;-78
2021/08/10 08:49:39;;;;;;;2.25;1.50;;;19.00;94.30;;;;;;5075228;28;20484;-79
2021/08/10 08:52:12;;;;;;;1.98;1.58;;;18.90;94.10;;;;;;5075218;28;20024;-82
2021/08/10 08:54:39;;;;;;;1.60;1.40;;;18.90;94.10;;;;;;5074745;28;20062;-79
2021/08/10 08:57:07;;;;;;;1.50;1.33;;;18.90;94.10;;;;;;5074841;28;20035;-79
2021/08/10 08:59:34;;;;;;;2.08;1.50;;;18.80;94.20;;;;;;5074241;28;20111;-79
2021/08/10 09:02:00;;;;;;;2.58;1.60;;;18.80;94.30;;;;;;5075028;28;20088;-77
2021/08/10 09:04:26;;;;;;;1.33;1.15;;;19.00;94.30;;;;;;5075012;28;20028;-77
2021/08/10 09:06:54;;;;;;;1.40;1.30;;;19.10;94.20;;;;;;5074527;28;20747;-79
2021/08/10 09:09:28;;;;;;;2.30;1.90;;;19.20;94.00;;;;;;5074721;28;20052;-79
2021/08/10 09:12:08;;;;;;;1.80;1.50;;;19.30;94.00;;;;;;5074821;28;20108;-78
2021/08/10 09:14:48;;;;;;;1.77;1.38;;;19.30;94.00;;;;;;5074916;28;20025;-79
2021/08/10 09:17:18;;;;;;;1.63;1.48;;;19.40;94.20;;;;;;5074619;28;20017;-78
2021/08/10 09:19:45;;;;;;;1.98;1.38;;;19.50;93.90;;;;;;5056599;28;20033;-79
2021/08/10 09:22:13;;;;;;;1.27;1.17;;;19.50;93.90;;;;;;5073896;28;20521;-79
2021/08/10 09:24:47;;;;;;;2.30;1.50;;;19.50;93.90;;;;;;5074590;28;20016;-79
2021/08/10 09:27:38;;;;;;;2.90;1.67;;;19.50;93.70;;;;;;5074542;28;20021;-78
2021/08/10 09:30:08;;;;;;;1.95;1.48;;;19.30;93.70;;;;;;5056358;28;20017;-79
2021/08/10 09:32:34;;;;;;;1.38;1.13;;;19.20;93.90;;;;;;5074592;28;20020;-79
2021/08/10 09:35:15;;;;;;;2.17;1.70;;;19.20;94.00;;;;;;5074387;28;20032;-78
2021/08/10 09:37:41;;;;;;;3.22;1.90;;;19.30;93.90;;;;;;5055970;28;20032;-78
2021/08/10 09:40:26;;;;;;;2.20;1.67;;;19.20;93.90;;;;;;5056071;28;20028;-78
2021/08/10 09:42:51;;;;;;;1.85;1.60;;;19.30;93.80;;;;;;5074244;28;20021;-79
2021/08/10 09:45:17;;;;;;;1.83;1.67;;;19.30;93.90;;;;;;5074100;28;20048;-79
2021/08/10 09:47:42;;;;;;;1.88;1.63;;;19.40;93.80;;;;;;5056086;28;20494;-79
2021/08/10 09:50:15;;;;;;;2.13;1.58;;;19.40;93.80;;;;;;5056022;28;20021;-80
2021/08/10 09:52:41;;;;;;;1.77;1.48;;;19.50;93.90;;;;;;5055514;28;20114;-80
2021/08/10 09:55:15;;;;;;;2.00;1.80;;;19.50;93.80;;;;;;5073940;28;20098;-79
2021/08/10 09:57:43;;;;;;;2.28;1.48;;;19.50;93.70;;;;;;5073936;28;20033;-79
2021/08/10 10:00:10;;;;;;;1.73;1.50;;;19.40;93.80;;;;;;5073722;28;20039;-79
2021/08/10 10:02:36;;;;;;;1.77;1.40;;;19.30;93.90;;;;;;5073610;28;20473;-79
2021/08/10 10:05:02;;;;;;;2.75;1.50;;;19.30;93.90;;;;;;5073354;28;20017;-79
2021/08/10 10:07:28;;;;;;;2.13;1.63;;;19.30;93.90;;;;;;5073779;28;20146;-80
2021/08/10 10:09:53;;;;;;;1.58;1.48;;;19.30;93.90;;;;;;5073621;28;20078;-80
2021/08/10 10:12:22;;;;;;;2.90;1.83;;;19.30;94.00;;;;;;5073598;28;20016;-80
2021/08/10 10:14:48;;;;;;;2.28;1.80;;;19.40;93.90;;;;;;5073809;28;20056;-80
2021/08/10 10:17:15;;;;;;;1.55;1.30;;;19.40;93.90;;;;;;5073563;28;20023;-79
2021/08/10 10:19:43;;;;;;;1.70;1.52;;;19.40;93.90;;;;;;5073055;28;20036;-78
2021/08/10 10:22:16;;;;;;;1.30;1.20;;;19.40;93.90;;;;;;5055422;28;20049;-81
2021/08/10 10:24:53;;;;;;;1.67;1.25;;;19.30;93.80;;;;;;5073507;28;20039;-80
2021/08/10 10:27:20;;;;;;;1.02;0.90;;;19.30;93.90;;;;;;5073386;28;20453;-80
2021/08/10 10:29:51;;;;;;;1.45;1.20;;;19.20;93.90;;;;;;5073924;28;20027;-79
2021/08/10 10:32:18;;;;;;;1.70;1.40;;;19.20;93.90;;;;;;5073287;28;20652;-78
2021/08/10 10:34:44;;;;;;;2.20;1.50;;;19.10;93.80;;;;;;5054852;28;20027;-79
2021/08/10 10:37:11;;;;;;;2.83;2.03;;;19.10;94.00;;;;;;5073315;28;20055;-77
2021/08/10 10:39:40;;;;;;;3.22;1.95;;;19.10;94.00;;;;;;5055117;28;20033;-78
2021/08/10 10:42:14;;;;;;;2.00;1.58;;;19.30;94.20;;;;;;5055325;28;20044;-78
2021/08/10 10:44:40;;;;;;;1.40;1.30;;;19.50;94.10;;;;;;5073110;28;20028;-78
2021/08/10 10:47:29;;;;;;;2.42;1.85;;;19.70;94.00;;;;;;5073374;28;20021;-79
2021/08/10 10:49:57;;;;;;;2.65;1.80;;;20.00;94.00;;;;;;5063323;28;20509;-80
2021/08/10 10:52:28;;;;;;;3.22;2.20;;;20.20;93.90;;;;;;5055229;28;20032;-78
2021/08/10 10:54:55;;;;;;;1.58;1.30;;;20.50;93.90;;;;;;5073329;28;20103;-78
2021/08/10 10:57:32;;;;;;;2.58;1.80;;;20.70;93.80;;;;;;5073148;28;20017;-77
2021/08/10 11:00:04;;;;;;;2.65;1.88;;;20.90;93.70;;;;;;5073023;28;20039;-80
2021/08/10 11:02:31;;;;;;;2.47;1.85;;;21.10;93.70;;;;;;5073183;28;20025;-79
2021/08/10 11:05:06;;;;;;;1.83;1.58;;;21.10;93.60;;;;;;5072649;28;20021;-81
2021/08/10 11:07:40;;;;;;;2.72;1.88;;;21.20;93.60;;;;;;5072897;28;20469;-79
2021/08/10 11:10:58;;;;;;;3.60;2.25;;;21.30;93.50;;;;;;5073061;28;20032;-79
2021/08/10 11:13:23;;;;;;;4.18;2.40;;;21.40;93.60;;;;;;5068015;28;20044;-80
2021/08/10 11:15:49;;;;;;;2.83;2.05;;;21.40;93.30;;;;;;5072913;28;20028;-81
2021/08/10 11:18:14;;;;;;;2.25;1.83;;;21.40;93.60;;;;;;5072318;28;20038;-78
2021/08/10 11:20:42;;;;;;;3.95;2.30;;;21.60;93.60;;;;;;5072732;28;20125;-80
2021/08/10 11:23:26;;;;;;;2.20;1.98;;;21.80;93.50;;;;;;5075517;28;20123;-79
2021/08/10 11:26:02;;;;;;;2.30;1.75;;;22.00;93.40;;;;;;5076811;28;20366;-80
2021/08/10 11:28:32;;;;;;;3.05;2.15;;;22.10;93.20;;;;;;5058792;28;20033;-79
2021/08/10 11:31:05;;;;;;;1.90;1.70;;;22.20;92.90;;;;;;5076759;28;20103;-78
2021/08/10 11:33:33;;;;;;;2.28;2.00;;;22.10;92.90;;;;;;5058304;28;20024;-80
2021/08/10 11:36:11;;;;;;;3.20;2.20;;;21.90;93.00;;;;;;5058800;28;20071;-79
2021/08/10 11:38:57;;;;;;;3.55;2.70;;;21.70;92.50;;;;;;5058386;28;20032;-81
2021/08/10 11:41:30;;;;;;;2.97;2.30;;;21.40;93.00;;;;;;5076532;28;20099;-84
2021/08/10 11:43:58;;;;;;;3.42;2.63;;;21.40;93.10;;;;;;5076971;28;20012;-80
2021/08/10 11:46:34;;;;;;;2.28;1.80;;;21.40;93.10;;;;;;5076060;28;20016;-87
2021/08/10 11:49:02;;;;;;;2.28;1.60;;;21.40;93.00;;;;;;5076465;28;20025;-86
2021/08/10 11:51:39;;;;;;;1.65;1.55;;;21.30;93.00;;;;;;5076571;28;20480;-83
2021/08/10 11:54:19;;;;;;;2.38;2.15;;;21.30;93.10;;;;;;5077117;28;20051;-84
2021/08/10 11:56:49;;;;;;;2.65;2.35;;;21.30;93.10;;;;;;5076517;28;20024;-82
2021/08/10 11:59:19;;;;;;;2.53;2.17;;;21.40;93.10;;;;;;5075202;28;20480;-86
2021/08/10 12:01:46;;;;;;;2.40;2.00;;;21.60;93.20;;;;;;5076236;28;20092;-80
2021/08/10 12:04:15;;;;;;;2.35;1.98;;;22.00;93.00;;;;;;5076290;28;20028;-83
2021/08/10 12:06:42;;;;;;;3.22;1.92;;;22.20;92.70;;;;;;5076778;28;20389;-85
2021/08/10 12:09:39;;;;;;;2.17;1.90;;;22.30;92.60;;;;;;5076649;28;20040;-85
2021/08/10 12:12:07;;;;;;;2.30;1.75;;;22.40;92.80;;;;;;5057271;28;20044;-86
2021/08/10 12:14:33;;;;;;;1.75;1.65;;;22.40;92.70;;;;;;5076677;28;20033;-82
2021/08/10 12:17:00;;;;;;;2.00;1.90;;;22.60;92.90;;;;;;5075820;28;20435;-84
2021/08/10 12:19:40;;;;;;;1.70;1.60;;;23.00;92.80;;;;;;5076137;28;20086;-86
2021/08/10 12:22:07;;;;;;;;;;;23.60;92.60;;;;;;5076662;28;20045;-84
2021/08/10 12:24:38;;;;;;;1.50;1.40;;;23.70;92.30;;;;;;5075957;28;20006;-84
2021/08/10 12:27:06;;;;;;;2.08;1.60;;;23.40;91.90;;;;;;5058119;28;20464;-83
2021/08/10 12:29:41;;;;;;;3.47;1.73;;;23.30;92.20;;;;;;5075829;28;20396;-82
2021/08/10 12:32:13;;;;;;;1.95;1.63;;;23.30;92.10;;;;;;5057674;28;20393;-85
2021/08/10 12:34:41;;;;;;;2.10;1.70;;;23.10;92.20;;;;;;5074944;28;20029;-82
2021/08/10 12:37:08;;;;;;;1.70;1.60;;;23.00;92.50;;;;;;5058205;28;20016;-83
2021/08/10 12:39:41;;;;;;;2.03;1.80;;;23.40;92.80;;;;;;5075606;28;20093;-84
2021/08/10 12:42:08;;;;;;;2.22;2.03;;;23.90;92.70;;;;;;5075532;28;20056;-83
2021/08/10 12:44:34;;;;;;;2.53;1.70;;;24.30;92.50;;;;;;5057164;28;20377;-80
2021/08/10 12:47:01;;;;;;;2.88;1.95;;;24.50;92.40;;;;;;5057565;28;20021;-86
2021/08/10 12:49:41;;;;;;;2.05;1.80;;;24.50;92.10;;;;;;5075706;28;20024;-83
2021/08/10 12:52:12;;;;;;;1.77;1.58;;;24.50;92.40;;;;;;5075577;28;20021;-86
2021/08/10 12:54:39;;;;;;;2.15;1.90;;;24.30;92.40;;;;;;5075891;28;20032;-84